Terminal Aerodrome Forecast
Issued by NWS Jackson, KY

Home | Current Version | Previous Version | Text Only | Print | Product List | Glossary On
Versions: 1 2 3 4 5 6 7 8 9 10 11 12 13 14 15 16 17 18 19 20 21 22
000
FTUS43 KJKL 260623 AAB
TAFJKL
TAF AMD
KJKL 260623Z 2606/2706 VRB03KT 1 1/2SM BR OVC002
     FM260830 VRB02KT 5SM BR OVC005
     FM261100 VRB04KT P6SM OVC010
     FM261300 VRB03KT P6SM SCT010 OVC015
     FM262000 02006KT P6SM SCT025 BKN040=

USA.gov is the U.S. government's official web portal to all federal, state and local government web resources and services.